Christiana, Tennessee
Current Conditions -  °F | °C
As of 11:53 AM on Monday 24 Nov 2014 (Local Time) from KBNA Reporting Station
Scattered Clouds Scattered Clouds  
Wind Chill: 57°   Ceiling: Unl
Heat Index: 57°   Visibility: 10mi
Dew Point: 41°   Wind: 10mph
Humidity: 55%   Direction: 260°W
Pressure: 29.77"   Gusts: 18mph
Location:  35.71°N, 86.4°W
Report Text: KBNA 241753Z 26009G16KT 10SM FEW034 SCT150 14/05 A2977 RMK AO2 SLP079 T01390050 10167 20128 50030
Loading
Personal Weather Stations






























Interactive Weather Map New forecast layout! Learn more

10-Day Weather Forecast

Advertisements
Track Severe Weather on mobile